Altha, Florida
Current Conditions -  °F | °C
As of 3:53 PM on Wednesday 22 Oct 2014 (Local Time) from KMAI Reporting Station
Clear Clear  
Wind Chill: 77°   Ceiling: Unl
Heat Index: 78°   Visibility: 10mi
Dew Point: 45°   Wind: 10mph
Humidity: 32%   Direction: 350°N
Pressure: 30"   Gusts: NA
Location:  30.57°N, 85.13°W
Report Text: KMAI 222053Z AUTO 35009KT 10SM CLR 25/07 A3000 RMK AO2 SLP159 T02500072 56012 $
Loading
Personal Weather Stations






























Interactive Weather Map
Tropical Storm Tracking
New forecast layout! Learn more

10-Day Weather Forecast

Advertisements
Track Severe Weather on mobile